Time;durP1;ratioP1;P1;durP2;ratioP2;P2;SDS_P1;SDS_P2;PMS_P1;PMS_P2;Temp;Humidity;BMP_temperature;BMP_pressure;BME280_temperature;BME280_humidity;BME280_pressure;Samples;Min_cycle;Max_cycle;Signal;HPM_P1;HPM_P2
2024/01/16 00:01:20;;;;;;;5.80;1.55;;;-0.40;99.90;;;;;;5034681;28;20483;-70
2024/01/16 00:03:46;;;;;;;7.75;1.30;;;-0.30;99.90;;;;;;5042088;28;20132;-69
2024/01/16 00:06:12;;;;;;;8.38;1.58;;;-0.40;99.90;;;;;;5036863;28;20033;-68
2024/01/16 00:08:38;;;;;;;9.20;1.48;;;-0.40;99.90;;;;;;5038467;28;20049;-69
2024/01/16 00:11:03;;;;;;;4.80;1.02;;;-0.40;99.90;;;;;;5025759;28;20534;-67
2024/01/16 00:13:29;;;;;;;4.60;1.40;;;-0.40;99.90;;;;;;5037708;28;20139;-69
2024/01/16 00:15:56;;;;;;;6.90;1.40;;;-0.40;99.90;;;;;;5026744;28;20037;-69
2024/01/16 00:18:22;;;;;;;8.93;1.88;;;-0.40;99.90;;;;;;5017128;28;20116;-70
2024/01/16 00:20:48;;;;;;;4.93;1.65;;;-0.40;99.90;;;;;;5030657;28;20121;-69
2024/01/16 00:23:14;;;;;;;9.77;1.63;;;-0.40;99.90;;;;;;5032286;28;20073;-69
2024/01/16 00:25:40;;;;;;;6.80;1.63;;;-0.50;99.90;;;;;;5031155;28;20980;-69
2024/01/16 00:28:05;;;;;;;5.07;1.35;;;-0.50;99.90;;;;;;5042954;28;20602;-69
2024/01/16 00:30:31;;;;;;;6.10;1.42;;;-0.50;99.90;;;;;;5033414;28;20064;-69
2024/01/16 00:32:57;;;;;;;5.72;1.63;;;-0.50;99.90;;;;;;5031770;28;20414;-69
2024/01/16 00:35:23;;;;;;;8.02;1.50;;;-0.50;99.90;;;;;;5035354;28;20449;-69
2024/01/16 00:37:48;;;;;;;6.85;1.50;;;-0.50;99.90;;;;;;5030867;28;20135;-69
2024/01/16 00:40:14;;;;;;;10.18;2.47;;;-0.50;99.90;;;;;;5025972;28;20112;-69
2024/01/16 00:42:40;;;;;;;8.68;1.52;;;-0.50;99.90;;;;;;5030434;28;20048;-69
2024/01/16 00:45:06;;;;;;;7.57;1.45;;;-0.60;99.90;;;;;;5030803;28;20119;-70
2024/01/16 00:47:31;;;;;;;10.18;1.55;;;-0.60;99.90;;;;;;5027667;28;20045;-70
2024/01/16 00:49:57;;;;;;;6.63;1.83;;;-0.60;99.90;;;;;;5032185;28;20092;-69
2024/01/16 00:52:22;;;;;;;7.03;1.40;;;-0.60;99.90;;;;;;5030567;28;20056;-70
2024/01/16 00:54:48;;;;;;;5.32;1.95;;;-0.60;99.90;;;;;;5018018;28;20513;-69
2024/01/16 00:57:16;;;;;;;7.50;1.40;;;-0.60;99.90;;;;;;5029810;28;20091;-69
2024/01/16 00:59:41;;;;;;;8.02;2.63;;;-0.60;99.90;;;;;;5016192;28;20404;-69
2024/01/16 01:02:09;;;;;;;7.65;1.67;;;-0.60;99.90;;;;;;5033141;28;20040;-68
2024/01/16 01:04:35;;;;;;;9.18;1.30;;;-0.60;99.90;;;;;;5028431;28;20049;-69
2024/01/16 01:07:01;;;;;;;11.43;2.25;;;-0.60;99.90;;;;;;5034054;28;20045;-69
2024/01/16 01:09:26;;;;;;;6.68;1.20;;;-0.60;99.90;;;;;;5022279;28;20043;-69
2024/01/16 01:11:52;;;;;;;4.03;1.15;;;-0.60;99.90;;;;;;5033521;28;20051;-69
2024/01/16 01:14:17;;;;;;;7.22;1.10;;;-0.50;99.90;;;;;;5019764;28;20064;-68
2024/01/16 01:16:43;;;;;;;6.57;1.23;;;-0.40;99.90;;;;;;5035951;28;20041;-69
2024/01/16 01:19:09;;;;;;;6.07;1.40;;;-0.40;99.90;;;;;;5032289;28;20037;-70
2024/01/16 01:21:35;;;;;;;6.03;1.27;;;-0.40;99.90;;;;;;5025866;28;20462;-68
2024/01/16 01:24:01;;;;;;;7.72;1.40;;;-0.30;99.90;;;;;;5012659;28;20116;-69
2024/01/16 01:26:26;;;;;;;5.65;1.00;;;-0.30;99.90;;;;;;5037954;28;20045;-70
2024/01/16 01:28:52;;;;;;;1.92;0.85;;;-0.30;99.90;;;;;;5036618;28;20478;-68
2024/01/16 01:31:18;;;;;;;8.27;1.13;;;-0.30;99.90;;;;;;5027455;28;20088;-70
2024/01/16 01:33:43;;;;;;;6.22;1.23;;;-0.40;99.90;;;;;;5040466;28;20087;-69
2024/01/16 01:36:09;;;;;;;9.50;1.50;;;-0.40;99.90;;;;;;5038958;28;20164;-69
2024/01/16 01:38:35;;;;;;;7.78;1.23;;;-0.50;99.90;;;;;;5017052;28;20025;-70
2024/01/16 01:41:01;;;;;;;7.82;1.10;;;-0.60;99.90;;;;;;5027480;28;20044;-69
2024/01/16 01:43:27;;;;;;;6.63;1.50;;;-0.60;99.90;;;;;;5028973;28;20053;-67
2024/01/16 01:46:17;;;;;;;5.50;1.20;;;-0.60;99.90;;;;;;5028459;28;20040;-69
2024/01/16 01:48:45;;;;;;;21.88;2.30;;;-0.70;99.90;;;;;;5033295;28;20075;-69
2024/01/16 01:51:12;;;;;;;10.10;1.40;;;-0.80;99.90;;;;;;5031990;28;20048;-70
2024/01/16 01:53:39;;;;;;;8.48;1.10;;;-0.80;99.90;;;;;;5048249;28;20041;-68
2024/01/16 01:56:08;;;;;;;6.15;1.15;;;-0.80;99.90;;;;;;5043636;28;20042;-69
2024/01/16 01:58:36;;;;;;;6.05;1.13;;;-0.90;98.80;;;;;;5035756;28;20033;-69
2024/01/16 02:01:03;;;;;;;5.63;1.55;;;-0.90;88.70;;;;;;5018816;28;20037;-69
2024/01/16 02:03:32;;;;;;;4.10;0.80;;;-0.90;96.70;;;;;;5034256;28;20441;-69
2024/01/16 02:05:58;;;;;;;5.93;0.93;;;-1.00;63.20;;;;;;5021899;28;20042;-69
2024/01/16 02:08:24;;;;;;;4.72;1.08;;;-1.00;83.70;;;;;;5027807;28;20481;-68
2024/01/16 02:10:50;;;;;;;5.25;0.85;;;-1.00;97.00;;;;;;5032303;28;20071;-69
2024/01/16 02:13:20;;;;;;;4.68;1.10;;;-1.00;99.90;;;;;;5044018;28;20036;-69
2024/01/16 02:15:45;;;;;;;1.65;0.85;;;-1.00;99.90;;;;;;5033411;28;20077;-69
2024/01/16 02:18:11;;;;;;;5.60;0.80;;;-1.00;99.90;;;;;;5026978;28;20460;-69
2024/01/16 02:20:37;;;;;;;4.95;1.15;;;-1.00;99.90;;;;;;5035614;28;20598;-69
2024/01/16 02:23:04;;;;;;;3.95;1.08;;;-0.90;99.90;;;;;;5035427;28;20041;-70
2024/01/16 02:25:30;;;;;;;3.17;0.68;;;-0.90;99.90;;;;;;5032486;28;20052;-70
2024/01/16 02:27:56;;;;;;;1.75;0.65;;;-0.80;99.90;;;;;;5027861;28;20049;-69
2024/01/16 02:30:21;;;;;;;6.30;0.98;;;-0.80;99.90;;;;;;5021634;28;20115;-69
2024/01/16 02:32:47;;;;;;;3.72;0.85;;;-0.70;99.90;;;;;;5026783;28;20120;-69
2024/01/16 02:35:13;;;;;;;6.05;0.70;;;-0.70;99.90;;;;;;5026581;28;20034;-69
2024/01/16 02:37:38;;;;;;;2.08;0.77;;;-0.60;99.90;;;;;;5040519;28;20030;-69
2024/01/16 02:40:06;;;;;;;2.40;0.80;;;-0.60;99.90;;;;;;5042725;28;20069;-69
2024/01/16 02:42:36;;;;;;;7.65;0.88;;;-0.50;99.90;;;;;;5041499;28;20071;-69
2024/01/16 02:45:03;;;;;;;7.40;0.98;;;-0.50;99.90;;;;;;5020269;28;20362;-68
2024/01/16 02:47:29;;;;;;;9.60;1.00;;;-0.50;99.90;;;;;;5030313;28;20045;-69
2024/01/16 02:49:55;;;;;;;3.25;0.73;;;-0.50;99.90;;;;;;5038579;28;20041;-70
2024/01/16 02:52:20;;;;;;;5.18;0.88;;;-0.60;99.90;;;;;;5036322;28;20033;-69
2024/01/16 02:54:46;;;;;;;2.13;0.80;;;-0.60;99.90;;;;;;5029987;28;20694;-69
2024/01/16 02:57:12;;;;;;;3.50;1.30;;;-0.70;99.90;;;;;;5036107;28;20044;-69
2024/01/16 02:59:37;;;;;;;9.35;1.83;;;-0.70;99.90;;;;;;5037736;28;20059;-69
2024/01/16 03:02:03;;;;;;;4.32;1.13;;;-0.70;99.90;;;;;;5035742;28;20116;-69
2024/01/16 03:04:29;;;;;;;6.90;0.90;;;-0.70;99.90;;;;;;5039430;28;20045;-69
2024/01/16 03:06:55;;;;;;;3.85;0.95;;;-0.70;99.90;;;;;;5039244;28;20044;-69
2024/01/16 03:09:21;;;;;;;8.02;1.10;;;-0.80;91.90;;;;;;5038110;28;20036;-69
2024/01/16 03:11:46;;;;;;;3.58;1.10;;;-0.80;76.00;;;;;;5030787;28;20049;-68
2024/01/16 03:14:13;;;;;;;4.47;0.80;;;-0.90;55.40;;;;;;5029057;28;20493;-69
2024/01/16 03:16:39;;;;;;;6.45;0.93;;;-0.90;68.30;;;;;;5034268;28;20045;-69
2024/01/16 03:19:05;;;;;;;3.97;1.00;;;-0.90;1.00;;;;;;5028858;28;20401;-69
2024/01/16 03:21:30;;;;;;;3.70;0.70;;;-0.90;2.90;;;;;;5035576;28;20052;-69
2024/01/16 03:23:56;;;;;;;6.35;0.80;;;-0.90;26.60;;;;;;5031378;28;20037;-68
2024/01/16 03:26:22;;;;;;;1.98;0.68;;;-0.90;1.00;;;;;;5030332;28;20033;-69
2024/01/16 03:28:47;;;;;;;6.75;1.15;;;-0.90;1.00;;;;;;5048732;28;20025;-69
2024/01/16 03:31:18;;;;;;;8.10;0.93;;;-1.00;1.00;;;;;;5015294;28;20068;-69
2024/01/16 03:33:43;;;;;;;4.18;0.88;;;-1.00;1.00;;;;;;5042135;28;20040;-69
2024/01/16 03:36:09;;;;;;;5.00;1.10;;;-1.00;1.00;;;;;;5031005;28;20036;-69
2024/01/16 03:38:38;;;;;;;6.40;0.90;;;-1.00;1.00;;;;;;5032213;28;20029;-69
2024/01/16 03:41:06;;;;;;;6.55;0.90;;;-1.10;1.00;;;;;;5031907;28;20037;-69
2024/01/16 03:43:33;;;;;;;8.77;0.93;;;-1.10;1.00;;;;;;5024848;28;20502;-70
2024/01/16 03:45:59;;;;;;;7.57;1.08;;;-1.10;1.00;;;;;;5021271;28;20053;-69
2024/01/16 03:48:25;;;;;;;7.45;1.17;;;-1.10;1.00;;;;;;5029953;28;20044;-69
2024/01/16 03:50:51;;;;;;;3.70;0.80;;;-1.10;1.00;;;;;;5030132;28;20036;-69
2024/01/16 03:53:17;;;;;;;6.72;1.02;;;-1.10;1.00;;;;;;5031293;28;20481;-68
2024/01/16 03:55:42;;;;;;;7.45;0.85;;;-1.10;1.00;;;;;;5026970;28;20136;-69
2024/01/16 03:58:08;;;;;;;3.28;0.93;;;-1.10;1.00;;;;;;5039789;28;20457;-69
2024/01/16 04:00:33;;;;;;;10.63;2.08;;;-1.10;1.00;;;;;;5043888;28;20040;-69
2024/01/16 04:02:59;;;;;;;5.15;0.77;;;-1.10;1.00;;;;;;5034360;28;20037;-72
2024/01/16 04:05:25;;;;;;;3.90;0.70;;;-1.00;1.00;;;;;;5038033;28;20043;-69
2024/01/16 04:07:50;;;;;;;4.32;1.10;;;-1.00;1.00;;;;;;5020888;28;20045;-70
2024/01/16 04:10:16;;;;;;;8.18;1.05;;;-1.00;1.00;;;;;;5025966;28;20037;-69
2024/01/16 04:12:42;;;;;;;3.15;0.80;;;-1.00;1.00;;;;;;5035070;28;20040;-69
2024/01/16 04:15:08;;;;;;;4.57;0.80;;;-1.00;1.00;;;;;;5017569;28;20026;-69
2024/01/16 04:17:33;;;;;;;2.15;0.70;;;-1.00;1.00;;;;;;5034882;28;20107;-69
2024/01/16 04:19:59;;;;;;;2.65;0.80;;;-1.00;1.00;;;;;;5017325;28;20052;-69
2024/01/16 04:22:24;;;;;;;4.13;0.80;;;-1.00;1.00;;;;;;5030532;28;20565;-68
2024/01/16 04:24:50;;;;;;;6.28;1.13;;;-0.90;1.00;;;;;;5025753;28;20164;-69
2024/01/16 04:27:16;;;;;;;11.57;2.35;;;-1.00;1.00;;;;;;5013218;28;20068;-69
2024/01/16 04:29:41;;;;;;;4.00;0.90;;;-0.90;1.00;;;;;;5040818;28;20144;-68
2024/01/16 04:32:07;;;;;;;3.40;0.90;;;-0.90;1.00;;;;;;5032484;28;20044;-68
2024/01/16 04:34:34;;;;;;;6.53;1.08;;;-0.80;1.00;;;;;;5012643;28;20484;-69
2024/01/16 04:36:59;;;;;;;6.07;1.00;;;-0.80;1.00;;;;;;5027435;28;20045;-68
2024/01/16 04:39:25;;;;;;;4.72;0.80;;;-0.80;1.00;;;;;;5028224;28;20037;-69
2024/01/16 04:41:51;;;;;;;3.05;0.80;;;-0.90;1.00;;;;;;5015284;28;20101;-68
2024/01/16 04:44:16;;;;;;;4.90;0.82;;;-0.80;1.00;;;;;;5027538;28;20043;-69
2024/01/16 04:46:42;;;;;;;2.70;0.80;;;-0.80;1.00;;;;;;5027062;28;20373;-69
2024/01/16 04:49:08;;;;;;;6.35;0.70;;;-0.80;1.00;;;;;;5027667;28;20082;-69
2024/01/16 04:51:34;;;;;;;6.38;0.98;;;-0.70;1.00;;;;;;5033063;28;20126;-69
2024/01/16 04:53:59;;;;;;;4.68;1.30;;;-0.70;1.00;;;;;;5045666;28;20033;-67
2024/01/16 04:56:25;;;;;;;5.57;1.38;;;-0.70;1.00;;;;;;5044107;28;20041;-69
2024/01/16 04:58:52;;;;;;;4.00;1.08;;;-0.70;99.90;;;;;;5030869;28;20060;-69
2024/01/16 05:01:17;;;;;;;3.40;0.93;;;-0.70;1.00;;;;;;5018431;28;20048;-68
2024/01/16 05:03:43;;;;;;;6.90;1.10;;;-0.70;99.90;;;;;;5037678;28;20037;-68
2024/01/16 05:06:14;;;;;;;6.18;1.20;;;-0.70;99.90;;;;;;5028048;28;20140;-69
2024/01/16 05:08:40;;;;;;;4.90;1.05;;;-0.70;99.90;;;;;;5034851;28;20107;-68
2024/01/16 05:11:05;;;;;;;6.53;1.20;;;-0.70;99.90;;;;;;5030147;28;20478;-69
2024/01/16 05:13:31;;;;;;;8.45;1.08;;;-0.70;99.90;;;;;;5019506;28;20045;-69
2024/01/16 05:15:57;;;;;;;5.15;0.93;;;-0.70;99.90;;;;;;5029094;28;20110;-68
2024/01/16 05:18:22;;;;;;;5.78;1.60;;;-0.70;99.90;;;;;;5019862;28;20492;-69
2024/01/16 05:20:48;;;;;;;3.72;0.93;;;-0.70;99.90;;;;;;5029258;28;20116;-69
2024/01/16 05:23:13;;;;;;;10.70;1.10;;;-0.70;1.00;;;;;;5024879;28;20097;-68
2024/01/16 05:25:39;;;;;;;5.30;1.17;;;-0.70;1.00;;;;;;5038044;28;20037;-68
2024/01/16 05:28:05;;;;;;;7.55;1.10;;;-0.70;1.00;;;;;;5028471;28;20052;-68
2024/01/16 05:30:30;;;;;;;6.72;1.70;;;-0.70;1.00;;;;;;5027942;28;20061;-69
2024/01/16 05:33:00;;;;;;;6.00;1.05;;;-0.70;99.90;;;;;;5033112;28;20045;-68
2024/01/16 05:35:27;;;;;;;7.65;1.00;;;-0.70;1.00;;;;;;5017442;28;20040;-69
2024/01/16 05:37:53;;;;;;;3.78;0.73;;;-0.60;99.90;;;;;;5012037;28;20337;-69
2024/01/16 05:40:19;;;;;;;4.68;1.13;;;-0.60;99.90;;;;;;5031002;28;20061;-69
2024/01/16 05:42:45;;;;;;;2.90;0.90;;;-0.60;99.90;;;;;;5037446;28;20451;-68
2024/01/16 05:45:10;;;;;;;4.45;1.08;;;-0.60;99.90;;;;;;5029315;28;20124;-69
2024/01/16 05:47:36;;;;;;;5.90;1.00;;;-0.60;99.90;;;;;;5021498;28;20136;-70
2024/01/16 05:50:02;;;;;;;5.00;0.80;;;-0.60;99.90;;;;;;5039298;28;20545;-69
2024/01/16 05:52:28;;;;;;;6.28;1.10;;;-0.60;1.00;;;;;;5040745;28;20052;-68
2024/01/16 05:54:57;;;;;;;6.07;1.27;;;-0.60;99.90;;;;;;5027518;28;20041;-69
2024/01/16 05:57:23;;;;;;;8.00;1.20;;;-0.60;99.90;;;;;;5036172;28;20059;-69
2024/01/16 05:59:48;;;;;;;4.22;0.77;;;-0.60;99.90;;;;;;5035766;28;20029;-68
2024/01/16 06:02:14;;;;;;;5.45;1.55;;;-0.60;99.90;;;;;;5021119;28;20091;-69
2024/01/16 06:04:40;;;;;;;4.20;0.90;;;-0.60;99.90;;;;;;5011645;28;20076;-69
2024/01/16 06:07:07;;;;;;;4.50;1.00;;;-0.50;99.90;;;;;;5031319;28;20088;-69
2024/01/16 06:09:33;;;;;;;4.85;1.13;;;-0.50;99.90;;;;;;5037978;28;20119;-69
2024/01/16 06:12:00;;;;;;;4.97;1.17;;;-0.50;99.90;;;;;;5030030;28;20049;-70
2024/01/16 06:14:25;;;;;;;5.90;1.10;;;-0.50;99.90;;;;;;5027766;28;20384;-68
2024/01/16 06:16:51;;;;;;;5.97;1.50;;;-0.50;99.90;;;;;;5029111;28;20033;-70
2024/01/16 06:19:16;;;;;;;6.05;1.05;;;-0.50;99.90;;;;;;5031273;28;20083;-69
2024/01/16 06:21:42;;;;;;;5.30;1.13;;;-0.50;99.90;;;;;;5037539;28;20049;-69
2024/01/16 06:24:08;;;;;;;3.65;1.08;;;-0.50;99.90;;;;;;5040457;28;20072;-70
2024/01/16 06:26:33;;;;;;;5.43;1.02;;;-0.50;99.90;;;;;;5043701;28;20405;-69
2024/01/16 06:28:59;;;;;;;3.55;0.93;;;-0.50;99.90;;;;;;5019894;28;20029;-68
2024/01/16 06:31:26;;;;;;;1.85;0.82;;;-0.50;99.90;;;;;;5045010;28;20378;-69
2024/01/16 06:33:51;;;;;;;4.22;0.75;;;-0.50;99.90;;;;;;5037053;28;20155;-69
2024/01/16 06:36:17;;;;;;;4.50;1.27;;;-0.50;99.90;;;;;;5029921;28;20215;-69
2024/01/16 06:38:43;;;;;;;5.35;0.88;;;-0.50;99.90;;;;;;5043228;28;20045;-71
2024/01/16 06:41:09;;;;;;;2.60;0.75;;;-0.50;99.90;;;;;;5022484;28;20063;-69
2024/01/16 06:43:35;;;;;;;3.00;1.05;;;-0.50;99.90;;;;;;5016610;28;20069;-69
2024/01/16 06:46:00;;;;;;;10.02;1.45;;;-0.50;99.90;;;;;;5035069;28;20132;-68
2024/01/16 06:48:26;;;;;;;6.05;0.82;;;-0.50;99.90;;;;;;5032940;28;20127;-68
2024/01/16 06:50:52;;;;;;;4.88;1.08;;;-0.40;99.90;;;;;;5023917;28;20069;-68
2024/01/16 06:53:17;;;;;;;7.50;1.00;;;-0.40;99.90;;;;;;5048379;28;20114;-69
2024/01/16 06:55:43;;;;;;;9.30;1.38;;;-0.40;99.90;;;;;;5033426;28;20136;-68
2024/01/16 06:58:09;;;;;;;7.88;1.30;;;-0.40;99.90;;;;;;5046300;28;20072;-69
2024/01/16 07:00:35;;;;;;;3.13;0.93;;;-0.50;99.90;;;;;;5047903;28;20076;-69
2024/01/16 07:03:02;;;;;;;6.22;1.10;;;-0.40;99.90;;;;;;5049882;28;20464;-69
2024/01/16 07:05:29;;;;;;;8.35;1.55;;;-0.40;99.90;;;;;;5023824;28;20041;-68
2024/01/16 07:07:55;;;;;;;2.53;1.30;;;-0.40;99.90;;;;;;5038460;28;20549;-69
2024/01/16 07:10:22;;;;;;;4.20;1.20;;;-0.40;99.90;;;;;;5037010;28;20124;-69
2024/01/16 07:12:49;;;;;;;5.05;1.02;;;-0.40;99.90;;;;;;5018466;28;20122;-69
2024/01/16 07:15:15;;;;;;;4.85;1.20;;;-0.40;99.90;;;;;;5030339;28;20163;-69
2024/01/16 07:17:41;;;;;;;4.60;1.23;;;-0.40;99.90;;;;;;5029767;28;20117;-69
2024/01/16 07:20:07;;;;;;;9.45;1.70;;;-0.40;99.90;;;;;;5015708;28;20507;-69
2024/01/16 07:22:34;;;;;;;3.72;1.25;;;-0.40;99.90;;;;;;5015593;28;20120;-69
2024/01/16 07:25:00;;;;;;;5.60;1.30;;;-0.40;99.90;;;;;;5048613;28;20386;-69
2024/01/16 07:27:25;;;;;;;9.02;2.00;;;-0.40;99.90;;;;;;5045590;28;20075;-68
2024/01/16 07:29:51;;;;;;;2.63;1.40;;;-0.40;99.90;;;;;;5031361;28;20037;-68
2024/01/16 07:32:17;;;;;;;3.10;1.23;;;-0.40;99.90;;;;;;5026735;28;20095;-67
2024/01/16 07:34:43;;;;;;;3.38;1.40;;;-0.30;99.90;;;;;;5044985;28;20103;-68
2024/01/16 07:37:08;;;;;;;6.63;1.77;;;-0.40;99.90;;;;;;5043273;28;20530;-67
2024/01/16 07:39:34;;;;;;;7.95;1.60;;;-0.30;99.90;;;;;;5037837;28;20081;-69
2024/01/16 07:42:00;;;;;;;6.97;1.42;;;-0.30;99.90;;;;;;5033737;28;20045;-69
2024/01/16 07:44:26;;;;;;;4.68;1.52;;;-0.30;99.90;;;;;;5037575;28;20048;-68
2024/01/16 07:46:51;;;;;;;4.20;1.60;;;-0.30;99.90;;;;;;5048714;28;20452;-69
2024/01/16 07:49:17;;;;;;;5.22;1.73;;;-0.30;99.90;;;;;;5036189;28;20134;-68
2024/01/16 07:51:43;;;;;;;5.40;1.77;;;-0.30;1.00;;;;;;5029765;28;20484;-69
2024/01/16 07:54:09;;;;;;;9.43;2.38;;;-0.30;99.90;;;;;;5028578;28;20489;-69
2024/01/16 07:56:36;;;;;;;6.68;2.15;;;-0.30;99.90;;;;;;5036650;28;20037;-69
2024/01/16 07:59:02;;;;;;;5.65;2.75;;;-0.30;99.90;;;;;;5037151;28;20041;-70
2024/01/16 08:01:32;;;;;;;5.88;2.03;;;-0.30;99.90;;;;;;5031229;28;20052;-68
2024/01/16 08:03:58;;;;;;;6.65;2.72;;;-0.30;99.90;;;;;;5013016;28;20044;-69
2024/01/16 08:06:24;;;;;;;7.82;2.47;;;-0.30;99.90;;;;;;5032145;28;20976;-67
2024/01/16 08:08:50;;;;;;;5.55;2.33;;;-0.30;99.90;;;;;;5021816;28;20046;-68
2024/01/16 08:11:18;;;;;;;6.72;3.00;;;-0.30;99.90;;;;;;5013726;28;20489;-68
2024/01/16 08:13:44;;;;;;;8.43;2.75;;;-0.30;99.90;;;;;;5028127;28;20052;-68
2024/01/16 08:16:09;;;;;;;7.15;3.05;;;-0.20;99.90;;;;;;5014973;28;20037;-68
2024/01/16 08:18:35;;;;;;;9.23;3.38;;;-0.20;99.90;;;;;;5029959;28;20033;-68
2024/01/16 08:21:01;;;;;;;7.10;3.80;;;-0.20;1.00;;;;;;5032551;28;20037;-69
2024/01/16 08:23:26;;;;;;;8.18;3.97;;;-0.20;99.90;;;;;;5029988;28;20037;-68
2024/01/16 08:25:52;;;;;;;10.63;3.70;;;-0.20;99.90;;;;;;5015594;28;20048;-68
2024/01/16 08:28:19;;;;;;;12.65;4.90;;;-0.20;1.00;;;;;;5020610;28;20480;-71
2024/01/16 08:30:44;;;;;;;9.75;3.63;;;-0.10;1.00;;;;;;5030328;28;20068;-67
2024/01/16 08:33:11;;;;;;;10.70;4.00;;;-0.10;99.90;;;;;;5012014;28;20045;-68
2024/01/16 08:35:37;;;;;;;11.25;4.72;;;-0.10;1.00;;;;;;5028574;28;20037;-69
2024/01/16 08:38:04;;;;;;;13.88;4.10;;;0.00;99.90;;;;;;5029519;28;20159;-69
2024/01/16 08:40:30;;;;;;;10.02;4.53;;;0.00;99.90;;;;;;5029975;28;20048;-67
2024/01/16 08:42:55;;;;;;;13.10;4.80;;;0.00;99.90;;;;;;5047744;28;20412;-68
2024/01/16 08:45:21;;;;;;;8.55;4.22;;;0.00;99.90;;;;;;5034132;28;20043;-68
2024/01/16 08:47:47;;;;;;;8.73;4.25;;;0.00;99.90;;;;;;5034771;28;20040;-67
2024/01/16 08:50:14;;;;;;;10.65;4.80;;;0.10;99.90;;;;;;5019757;28;20041;-68
2024/01/16 08:52:40;;;;;;;9.73;4.15;;;0.10;99.90;;;;;;5030363;28;20458;-67
2024/01/16 08:55:06;;;;;;;12.27;4.15;;;0.10;99.90;;;;;;5021281;28;20119;-67
2024/01/16 08:57:31;;;;;;;8.65;4.03;;;0.10;99.90;;;;;;5041850;28;20037;-67
2024/01/16 08:59:57;;;;;;;12.10;4.50;;;0.20;99.90;;;;;;5044196;28;20048;-68
2024/01/16 09:02:24;;;;;;;12.88;4.43;;;0.30;99.90;;;;;;5022047;28;20064;-67
2024/01/16 09:04:50;;;;;;;8.68;3.92;;;0.30;99.90;;;;;;5029472;28;20072;-67
2024/01/16 09:07:18;;;;;;;10.80;4.35;;;0.30;99.90;;;;;;5031075;28;20064;-67
2024/01/16 09:09:44;;;;;;;12.65;4.25;;;0.30;99.90;;;;;;5024717;28;20742;-68
2024/01/16 09:12:10;;;;;;;12.05;5.05;;;0.30;99.90;;;;;;5045342;28;20049;-68
2024/01/16 09:14:36;;;;;;;10.57;3.70;;;0.30;1.00;;;;;;5032977;28;20448;-68
2024/01/16 09:17:03;;;;;;;9.98;4.15;;;0.30;99.90;;;;;;5035996;28;20036;-68
2024/01/16 09:19:29;;;;;;;7.93;4.10;;;0.30;1.00;;;;;;5029233;28;20467;-68
2024/01/16 09:21:55;;;;;;;27.13;5.82;;;0.30;1.00;;;;;;5041804;28;20121;-66
2024/01/16 09:24:22;;;;;;;13.77;4.97;;;0.40;1.00;;;;;;5029634;28;20614;-67
2024/01/16 09:26:48;;;;;;;9.57;4.22;;;0.30;1.00;;;;;;5016501;28;20485;-68
2024/01/16 09:29:14;;;;;;;8.45;3.75;;;0.30;1.00;;;;;;5039743;28;20069;-67
2024/01/16 09:31:40;;;;;;;12.40;3.90;;;0.40;1.00;;;;;;5026445;28;20057;-68
2024/01/16 09:34:06;;;;;;;12.27;3.88;;;0.40;1.00;;;;;;5037296;28;20147;-67
2024/01/16 09:36:35;;;;;;;7.70;3.33;;;0.40;1.00;;;;;;5036852;28;20045;-70
2024/01/16 09:39:02;;;;;;;9.35;3.40;;;0.40;1.00;;;;;;5012861;28;20029;-67
2024/01/16 09:41:27;;;;;;;9.93;3.50;;;0.40;1.00;;;;;;5026302;28;20068;-68
2024/01/16 09:43:53;;;;;;;9.57;3.35;;;0.50;1.00;;;;;;5043669;28;20080;-67
2024/01/16 09:46:22;;;;;;;6.63;3.38;;;0.50;1.00;;;;;;5031627;28;20060;-67
2024/01/16 09:48:50;;;;;;;8.52;3.45;;;0.50;1.00;;;;;;5028303;28;20087;-67
2024/01/16 09:51:17;;;;;;;7.97;2.65;;;0.50;1.00;;;;;;5037925;28;20075;-68
2024/01/16 09:53:43;;;;;;;8.13;3.40;;;0.50;1.00;;;;;;5039574;28;20037;-67
2024/01/16 09:56:17;;;;;;;11.10;3.50;;;0.50;1.00;;;;;;5034641;28;20064;-68
2024/01/16 09:58:45;;;;;;;7.35;2.90;;;0.50;1.00;;;;;;5012344;28;20432;-67
2024/01/16 10:01:12;;;;;;;8.65;3.42;;;0.50;1.00;;;;;;5029811;28;20048;-68
2024/01/16 10:03:40;;;;;;;7.57;3.20;;;0.60;1.00;;;;;;5028959;28;20385;-67
2024/01/16 10:06:07;;;;;;;7.53;3.20;;;0.60;1.00;;;;;;5041284;28;20379;-67
2024/01/16 10:08:33;;;;;;;9.93;4.20;;;0.50;1.00;;;;;;5006710;28;20396;-68
2024/01/16 10:10:59;;;;;;;9.32;3.85;;;0.60;1.00;;;;;;5014133;28;20041;-68
2024/01/16 10:13:26;;;;;;;10.90;4.30;;;0.60;1.00;;;;;;5026643;28;20124;-66
2024/01/16 10:15:55;;;;;;;10.80;4.55;;;0.60;1.00;;;;;;5025983;28;20041;-68
2024/01/16 10:18:35;;;;;;;10.77;5.13;;;0.60;1.00;;;;;;5023936;28;20037;-70
2024/01/16 10:21:00;;;;;;;;;;;0.60;1.00;;;;;;5033594;28;20037;-69
2024/01/16 10:23:28;;;;;;;12.77;5.00;;;0.70;1.00;;;;;;5016929;28;19924;-69
2024/01/16 10:26:13;;;;;;;14.35;5.65;;;0.70;1.00;;;;;;5017928;28;20051;-68
2024/01/16 10:28:41;;;;;;;15.40;5.95;;;0.70;1.00;;;;;;5034124;28;20080;-67
2024/01/16 10:31:11;;;;;;;13.13;5.43;;;0.80;1.00;;;;;;5025605;28;20060;-66
2024/01/16 10:33:39;;;;;;;12.95;5.45;;;0.80;99.90;;;;;;5020688;28;20393;-66
2024/01/16 10:36:11;;;;;;;14.30;6.18;;;0.80;99.90;;;;;;5030401;28;20483;-66
2024/01/16 10:38:39;;;;;;;10.93;5.70;;;0.80;99.90;;;;;;5030787;28;20040;-66
2024/01/16 10:41:10;;;;;;;11.82;6.15;;;0.80;99.90;;;;;;5021847;28;20135;-67
2024/01/16 10:43:37;;;;;;;13.20;6.88;;;0.90;99.90;;;;;;5039896;28;20052;-69
2024/01/16 10:46:17;;;;;;;14.30;5.60;;;0.80;99.90;;;;;;5038267;28;20061;-68
2024/01/16 10:49:00;;;;;;;11.27;5.80;;;0.80;99.90;;;;;;5036900;28;20072;-67
2024/01/16 10:51:27;;;;;;;11.95;6.35;;;0.90;99.90;;;;;;5036292;28;20080;-67
2024/01/16 10:53:59;;;;;;;11.80;6.07;;;0.90;99.90;;;;;;5043442;28;20728;-67
2024/01/16 10:56:26;;;;;;;14.18;6.00;;;0.90;99.90;;;;;;5012220;28;20073;-66
2024/01/16 10:59:03;;;;;;;11.15;5.05;;;0.90;99.90;;;;;;5017071;28;20049;-66
2024/01/16 11:01:31;;;;;;;14.23;6.00;;;0.90;99.90;;;;;;5030662;28;20045;-66
2024/01/16 11:03:59;;;;;;;14.38;6.10;;;0.90;99.90;;;;;;5033209;28;20128;-65
2024/01/16 11:06:25;;;;;;;11.35;4.43;;;0.90;99.90;;;;;;5036390;28;20354;-66
2024/01/16 11:08:53;;;;;;;9.20;4.85;;;0.90;99.90;;;;;;5032666;28;20171;-67
2024/01/16 11:11:20;;;;;;;8.35;5.15;;;0.90;99.90;;;;;;5030440;28;20041;-65
2024/01/16 11:13:46;;;;;;;9.00;3.97;;;0.90;99.90;;;;;;5036784;28;20072;-66
2024/01/16 11:16:12;;;;;;;12.23;4.05;;;1.00;99.90;;;;;;5034112;28;20097;-66
2024/01/16 11:18:38;;;;;;;8.82;3.85;;;1.00;99.90;;;;;;5048923;28;20029;-67
2024/01/16 11:21:07;;;;;;;8.07;3.42;;;1.00;99.90;;;;;;5014049;28;20132;-66
2024/01/16 11:23:32;;;;;;;11.75;3.70;;;1.10;99.90;;;;;;5032126;28;20056;-66
2024/01/16 11:25:59;;;;;;;12.70;4.32;;;1.10;99.90;;;;;;5030082;28;20772;-66
2024/01/16 11:28:31;;;;;;;7.43;3.13;;;1.10;99.90;;;;;;5035166;28;20037;-65
2024/01/16 11:30:57;;;;;;;6.93;2.72;;;1.10;99.90;;;;;;5032780;28;22191;-63
2024/01/16 11:33:31;;;;;;;5.00;2.40;;;1.10;99.90;;;;;;5016292;28;20037;-66
2024/01/16 11:35:57;;;;;;;6.03;2.50;;;1.00;99.90;;;;;;5030842;28;20037;-66
2024/01/16 11:38:26;;;;;;;5.50;2.10;;;1.00;99.90;;;;;;5034640;28;20038;-68
2024/01/16 11:40:58;;;;;;;5.70;2.17;;;1.00;99.90;;;;;;5019651;28;20095;-67
2024/01/16 11:43:33;;;;;;;6.65;1.70;;;0.90;99.90;;;;;;5019152;28;20041;-66
2024/01/16 11:45:59;;;;;;;3.80;1.75;;;0.90;99.90;;;;;;5030624;28;20579;-68
2024/01/16 11:48:28;;;;;;;3.58;1.92;;;0.90;99.90;;;;;;5047908;28;20056;-68
2024/01/16 11:50:54;;;;;;;3.28;1.73;;;0.90;99.90;;;;;;5027852;28;20033;-67
2024/01/16 11:53:39;;;;;;;9.38;2.22;;;1.00;99.90;;;;;;5040170;28;20503;-68
2024/01/16 11:56:11;;;;;;;3.47;1.52;;;1.00;99.90;;;;;;5038426;28;20033;-66
2024/01/16 11:59:01;;;;;;;3.75;1.25;;;1.10;99.90;;;;;;5028108;28;20381;-69
2024/01/16 12:01:27;;;;;;;4.15;1.45;;;1.00;99.90;;;;;;5032974;28;20129;-64
2024/01/16 12:04:05;;;;;;;3.83;1.40;;;1.10;99.90;;;;;;5019287;28;20053;-66
2024/01/16 12:06:33;;;;;;;5.03;2.63;;;1.20;99.90;;;;;;5048695;28;20544;-68
2024/01/16 12:09:15;;;;;;;3.97;1.45;;;1.20;99.90;;;;;;5039040;28;20091;-67
2024/01/16 12:11:47;;;;;;;5.97;1.70;;;1.10;99.90;;;;;;5034024;28;20072;-68
2024/01/16 12:14:13;;;;;;;3.88;1.40;;;1.20;99.90;;;;;;5032073;28;20620;-66
2024/01/16 12:16:41;;;;;;;5.68;1.60;;;1.20;99.90;;;;;;5030059;28;20057;-66
2024/01/16 12:19:08;;;;;;;5.97;1.70;;;1.20;99.90;;;;;;5042725;28;20044;-68
2024/01/16 12:21:44;;;;;;;6.80;1.85;;;1.30;99.90;;;;;;5026320;28;20065;-67
2024/01/16 12:24:13;;;;;;;7.75;1.63;;;1.40;99.90;;;;;;5033007;28;20419;-67
2024/01/16 12:26:39;;;;;;;5.55;1.83;;;1.40;99.90;;;;;;5029451;28;20474;-67
2024/01/16 12:29:05;;;;;;;8.98;2.10;;;1.50;99.90;;;;;;5030853;28;20049;-67
2024/01/16 12:31:31;;;;;;;5.65;1.95;;;1.50;99.90;;;;;;5048365;28;20454;-67
2024/01/16 12:34:10;;;;;;;7.53;1.90;;;1.50;99.90;;;;;;5042060;28;20183;-68
2024/01/16 12:36:37;;;;;;;5.22;1.75;;;1.50;99.90;;;;;;5028786;28;20039;-66
2024/01/16 12:39:03;;;;;;;7.18;2.10;;;1.50;99.90;;;;;;5031477;28;20045;-70
2024/01/16 12:41:36;;;;;;;6.80;2.00;;;1.50;99.90;;;;;;5019008;28;20041;-68
2024/01/16 12:44:03;;;;;;;9.88;2.78;;;1.50;99.90;;;;;;5009190;28;22053;-73
2024/01/16 12:46:28;;;;;;;6.20;2.92;;;1.50;99.90;;;;;;5030485;28;20076;-68
2024/01/16 12:49:03;;;;;;;8.73;3.08;;;1.40;99.90;;;;;;5032361;28;20072;-69